sensor_id;sensor_type;location;lat;lon;timestamp;temperature;humidity
71523;HTU21D;59343;51.102;5.884;2023-04-03T00:00:10;4.62;74.18
71523;HTU21D;59343;51.102;5.884;2023-04-03T00:02:36;4.60;74.36
71523;HTU21D;59343;51.102;5.884;2023-04-03T00:05:02;4.58;74.44
71523;HTU21D;59343;51.102;5.884;2023-04-03T00:07:28;4.56;74.28
71523;HTU21D;59343;51.102;5.884;2023-04-03T00:09:54;4.57;74.14
71523;HTU21D;59343;51.102;5.884;2023-04-03T00:12:20;4.57;74.04
71523;HTU21D;59343;51.102;5.884;2023-04-03T00:14:46;4.57;73.93
71523;HTU21D;59343;51.102;5.884;2023-04-03T00:17:12;4.56;73.96
71523;HTU21D;59343;51.102;5.884;2023-04-03T00:19:38;4.53;73.96
71523;HTU21D;59343;51.102;5.884;2023-04-03T00:22:04;4.50;73.93
71523;HTU21D;59343;51.102;5.884;2023-04-03T00:24:30;4.48;73.91
71523;HTU21D;59343;51.102;5.884;2023-04-03T00:26:56;4.45;73.97
71523;HTU21D;59343;51.102;5.884;2023-04-03T00:29:22;4.43;74.08
71523;HTU21D;59343;51.102;5.884;2023-04-03T00:31:48;4.43;74.23
71523;HTU21D;59343;51.102;5.884;2023-04-03T00:34:14;4.44;74.24
71523;HTU21D;59343;51.102;5.884;2023-04-03T00:36:40;4.42;74.23
71523;HTU21D;59343;51.102;5.884;2023-04-03T00:39:06;4.41;74.30
71523;HTU21D;59343;51.102;5.884;2023-04-03T00:41:32;4.37;74.29
71523;HTU21D;59343;51.102;5.884;2023-04-03T00:43:58;4.36;74.38
71523;HTU21D;59343;51.102;5.884;2023-04-03T00:46:24;4.36;74.35
71523;HTU21D;59343;51.102;5.884;2023-04-03T00:48:50;4.34;74.37
71523;HTU21D;59343;51.102;5.884;2023-04-03T00:51:20;4.33;74.61
71523;HTU21D;59343;51.102;5.884;2023-04-03T00:53:59;4.32;74.68
71523;HTU21D;59343;51.102;5.884;2023-04-03T00:56:29;4.32;74.62
71523;HTU21D;59343;51.102;5.884;2023-04-03T00:59:07;4.31;74.64
71523;HTU21D;59343;51.102;5.884;2023-04-03T01:01:34;4.30;74.76
71523;HTU21D;59343;51.102;5.884;2023-04-03T01:04:01;4.28;74.87
71523;HTU21D;59343;51.102;5.884;2023-04-03T01:06:32;4.26;74.87
71523;HTU21D;59343;51.102;5.884;2023-04-03T01:09:05;4.24;75.05
71523;HTU21D;59343;51.102;5.884;2023-04-03T01:11:32;4.23;75.26
71523;HTU21D;59343;51.102;5.884;2023-04-03T01:13:59;4.20;75.27
71523;HTU21D;59343;51.102;5.884;2023-04-03T01:16:27;4.15;75.40
71523;HTU21D;59343;51.102;5.884;2023-04-03T01:18:59;4.10;75.54
71523;HTU21D;59343;51.102;5.884;2023-04-03T01:21:56;4.06;75.68
71523;HTU21D;59343;51.102;5.884;2023-04-03T01:24:33;4.01;75.79
71523;HTU21D;59343;51.102;5.884;2023-04-03T01:27:04;3.97;76.03
71523;HTU21D;59343;51.102;5.884;2023-04-03T01:29:30;3.92;76.23
71523;HTU21D;59343;51.102;5.884;2023-04-03T01:31:59;3.89;76.31
71523;HTU21D;59343;51.102;5.884;2023-04-03T01:34:27;3.89;76.34
71523;HTU21D;59343;51.102;5.884;2023-04-03T01:36:54;3.88;76.38
71523;HTU21D;59343;51.102;5.884;2023-04-03T01:39:21;3.84;76.42
71523;HTU21D;59343;51.102;5.884;2023-04-03T01:41:48;3.79;76.57
71523;HTU21D;59343;51.102;5.884;2023-04-03T01:44:29;3.76;76.77
71523;HTU21D;59343;51.102;5.884;2023-04-03T01:46:55;3.74;76.78
71523;HTU21D;59343;51.102;5.884;2023-04-03T01:49:23;3.70;76.76
71523;HTU21D;59343;51.102;5.884;2023-04-03T01:51:49;3.65;76.92
71523;HTU21D;59343;51.102;5.884;2023-04-03T01:54:15;3.62;77.11
71523;HTU21D;59343;51.102;5.884;2023-04-03T01:56:41;3.61;77.25
71523;HTU21D;59343;51.102;5.884;2023-04-03T01:59:07;3.59;77.34
71523;HTU21D;59343;51.102;5.884;2023-04-03T02:01:33;3.58;77.24
71523;HTU21D;59343;51.102;5.884;2023-04-03T02:03:59;3.55;77.25
71523;HTU21D;59343;51.102;5.884;2023-04-03T02:06:26;3.54;77.40
71523;HTU21D;59343;51.102;5.884;2023-04-03T02:08:52;3.52;77.44
71523;HTU21D;59343;51.102;5.884;2023-04-03T02:11:18;3.50;77.43
71523;HTU21D;59343;51.102;5.884;2023-04-03T02:13:44;3.48;77.48
71523;HTU21D;59343;51.102;5.884;2023-04-03T02:16:10;3.46;77.52
71523;HTU21D;59343;51.102;5.884;2023-04-03T02:18:38;3.43;77.55
71523;HTU21D;59343;51.102;5.884;2023-04-03T02:21:05;3.41;77.60
71523;HTU21D;59343;51.102;5.884;2023-04-03T02:23:31;3.39;77.65
71523;HTU21D;59343;51.102;5.884;2023-04-03T02:26:11;3.36;77.60
71523;HTU21D;59343;51.102;5.884;2023-04-03T02:28:37;3.34;77.72
71523;HTU21D;59343;51.102;5.884;2023-04-03T02:31:04;3.32;77.82
71523;HTU21D;59343;51.102;5.884;2023-04-03T02:33:32;3.30;77.90
71523;HTU21D;59343;51.102;5.884;2023-04-03T02:35:59;3.28;77.90
71523;HTU21D;59343;51.102;5.884;2023-04-03T02:38:25;3.29;77.78
71523;HTU21D;59343;51.102;5.884;2023-04-03T02:40:53;3.29;77.72
71523;HTU21D;59343;51.102;5.884;2023-04-03T02:43:18;3.27;77.66
71523;HTU21D;59343;51.102;5.884;2023-04-03T02:45:44;3.29;77.71
71523;HTU21D;59343;51.102;5.884;2023-04-03T02:48:10;3.28;77.63
71523;HTU21D;59343;51.102;5.884;2023-04-03T02:50:37;3.28;77.52
71523;HTU21D;59343;51.102;5.884;2023-04-03T02:53:03;3.27;77.59
71523;HTU21D;59343;51.102;5.884;2023-04-03T02:55:29;3.27;77.53
71523;HTU21D;59343;51.102;5.884;2023-04-03T02:57:55;3.27;77.50
71523;HTU21D;59343;51.102;5.884;2023-04-03T03:00:21;3.26;77.53
71523;HTU21D;59343;51.102;5.884;2023-04-03T03:02:49;3.23;77.55
71523;HTU21D;59343;51.102;5.884;2023-04-03T03:05:15;3.20;77.65
71523;HTU21D;59343;51.102;5.884;2023-04-03T03:07:41;3.23;77.67
71523;HTU21D;59343;51.102;5.884;2023-04-03T03:10:07;3.20;77.79
71523;HTU21D;59343;51.102;5.884;2023-04-03T03:12:34;3.21;77.66
71523;HTU21D;59343;51.102;5.884;2023-04-03T03:15:00;3.19;77.67
71523;HTU21D;59343;51.102;5.884;2023-04-03T03:17:25;3.19;77.77
71523;HTU21D;59343;51.102;5.884;2023-04-03T03:19:51;3.17;77.89
71523;HTU21D;59343;51.102;5.884;2023-04-03T03:22:18;3.17;77.91
71523;HTU21D;59343;51.102;5.884;2023-04-03T03:24:44;3.18;77.92
71523;HTU21D;59343;51.102;5.884;2023-04-03T03:27:10;3.14;77.97
71523;HTU21D;59343;51.102;5.884;2023-04-03T03:29:36;3.13;78.06
71523;HTU21D;59343;51.102;5.884;2023-04-03T03:32:03;3.15;78.11
71523;HTU21D;59343;51.102;5.884;2023-04-03T03:34:30;3.14;78.10
71523;HTU21D;59343;51.102;5.884;2023-04-03T03:36:55;3.13;78.21
71523;HTU21D;59343;51.102;5.884;2023-04-03T03:39:21;3.12;78.23
71523;HTU21D;59343;51.102;5.884;2023-04-03T03:41:47;3.09;78.35
71523;HTU21D;59343;51.102;5.884;2023-04-03T03:44:15;3.05;78.46
71523;HTU21D;59343;51.102;5.884;2023-04-03T03:46:41;3.03;78.59
71523;HTU21D;59343;51.102;5.884;2023-04-03T03:49:07;3.01;78.72
71523;HTU21D;59343;51.102;5.884;2023-04-03T03:51:33;2.98;78.85
71523;HTU21D;59343;51.102;5.884;2023-04-03T03:53:59;2.97;78.93
71523;HTU21D;59343;51.102;5.884;2023-04-03T03:56:25;2.96;78.98
71523;HTU21D;59343;51.102;5.884;2023-04-03T03:58:52;2.95;79.08
71523;HTU21D;59343;51.102;5.884;2023-04-03T04:01:18;2.94;79.08
71523;HTU21D;59343;51.102;5.884;2023-04-03T04:03:47;2.95;79.08
71523;HTU21D;59343;51.102;5.884;2023-04-03T04:06:17;2.93;79.10
71523;HTU21D;59343;51.102;5.884;2023-04-03T04:08:44;2.90;79.29
71523;HTU21D;59343;51.102;5.884;2023-04-03T04:11:11;2.88;79.43
71523;HTU21D;59343;51.102;5.884;2023-04-03T04:13:38;2.89;79.48
71523;HTU21D;59343;51.102;5.884;2023-04-03T04:16:04;2.91;79.40
71523;HTU21D;59343;51.102;5.884;2023-04-03T04:18:32;2.93;79.36
71523;HTU21D;59343;51.102;5.884;2023-04-03T04:20:57;2.93;79.33
71523;HTU21D;59343;51.102;5.884;2023-04-03T04:23:24;2.90;79.34
71523;HTU21D;59343;51.102;5.884;2023-04-03T04:25:50;2.87;79.43
71523;HTU21D;59343;51.102;5.884;2023-04-03T04:28:18;2.85;79.59
71523;HTU21D;59343;51.102;5.884;2023-04-03T04:30:45;2.83;79.66
71523;HTU21D;59343;51.102;5.884;2023-04-03T04:33:12;2.84;79.68
71523;HTU21D;59343;51.102;5.884;2023-04-03T04:35:42;2.84;79.66
71523;HTU21D;59343;51.102;5.884;2023-04-03T04:38:09;2.85;79.54
71523;HTU21D;59343;51.102;5.884;2023-04-03T04:40:35;2.83;79.53
71523;HTU21D;59343;51.102;5.884;2023-04-03T04:43:01;2.80;79.57
71523;HTU21D;59343;51.102;5.884;2023-04-03T04:45:27;2.78;79.66
71523;HTU21D;59343;51.102;5.884;2023-04-03T04:47:55;2.78;79.66
71523;HTU21D;59343;51.102;5.884;2023-04-03T04:50:23;2.76;79.68
71523;HTU21D;59343;51.102;5.884;2023-04-03T04:52:49;2.74;79.66
71523;HTU21D;59343;51.102;5.884;2023-04-03T04:55:15;2.72;79.72
71523;HTU21D;59343;51.102;5.884;2023-04-03T04:57:41;2.70;79.78
71523;HTU21D;59343;51.102;5.884;2023-04-03T05:00:07;2.69;79.82
71523;HTU21D;59343;51.102;5.884;2023-04-03T05:02:34;2.70;79.80
71523;HTU21D;59343;51.102;5.884;2023-04-03T05:05:00;2.70;79.80
71523;HTU21D;59343;51.102;5.884;2023-04-03T05:07:28;2.71;79.69
71523;HTU21D;59343;51.102;5.884;2023-04-03T05:09:55;2.70;79.63
71523;HTU21D;59343;51.102;5.884;2023-04-03T05:12:22;2.72;79.62
71523;HTU21D;59343;51.102;5.884;2023-04-03T05:14:54;2.70;79.57
71523;HTU21D;59343;51.102;5.884;2023-04-03T05:17:20;2.68;79.60
71523;HTU21D;59343;51.102;5.884;2023-04-03T05:19:50;2.69;79.64
71523;HTU21D;59343;51.102;5.884;2023-04-03T05:22:17;2.69;79.66
71523;HTU21D;59343;51.102;5.884;2023-04-03T05:24:44;2.70;79.68
71523;HTU21D;59343;51.102;5.884;2023-04-03T05:27:10;2.75;79.53
71523;HTU21D;59343;51.102;5.884;2023-04-03T05:29:40;2.79;79.39
71523;HTU21D;59343;51.102;5.884;2023-04-03T05:32:10;2.81;79.31
71523;HTU21D;59343;51.102;5.884;2023-04-03T05:34:36;2.81;79.17
71523;HTU21D;59343;51.102;5.884;2023-04-03T05:37:03;2.83;79.14
71523;HTU21D;59343;51.102;5.884;2023-04-03T05:39:30;2.82;79.16
71523;HTU21D;59343;51.102;5.884;2023-04-03T05:41:59;2.81;79.15
71523;HTU21D;59343;51.102;5.884;2023-04-03T05:44:25;2.83;79.17
71523;HTU21D;59343;51.102;5.884;2023-04-03T05:46:53;2.81;79.18
71523;HTU21D;59343;51.102;5.884;2023-04-03T05:49:19;2.82;79.34
71523;HTU21D;59343;51.102;5.884;2023-04-03T05:51:46;2.87;79.37
71523;HTU21D;59343;51.102;5.884;2023-04-03T05:54:29;2.88;79.27
71523;HTU21D;59343;51.102;5.884;2023-04-03T05:57:23;2.89;79.29
71523;HTU21D;59343;51.102;5.884;2023-04-03T05:59:49;2.90;79.39
71523;HTU21D;59343;51.102;5.884;2023-04-03T06:02:21;2.91;79.43
71523;HTU21D;59343;51.102;5.884;2023-04-03T06:04:52;2.91;79.47
71523;HTU21D;59343;51.102;5.884;2023-04-03T06:07:23;2.94;79.56
71523;HTU21D;59343;51.102;5.884;2023-04-03T06:09:52;2.97;79.54
71523;HTU21D;59343;51.102;5.884;2023-04-03T06:12:19;3.02;79.46
71523;HTU21D;59343;51.102;5.884;2023-04-03T06:14:45;3.08;79.35
71523;HTU21D;59343;51.102;5.884;2023-04-03T06:17:14;3.11;79.18
71523;HTU21D;59343;51.102;5.884;2023-04-03T06:19:41;3.17;79.18
71523;HTU21D;59343;51.102;5.884;2023-04-03T06:22:10;3.19;79.06
71523;HTU21D;59343;51.102;5.884;2023-04-03T06:24:37;3.21;78.89
71523;HTU21D;59343;51.102;5.884;2023-04-03T06:27:04;3.26;78.77
71523;HTU21D;59343;51.102;5.884;2023-04-03T06:29:31;3.31;78.79
71523;HTU21D;59343;51.102;5.884;2023-04-03T06:31:57;3.32;78.76
71523;HTU21D;59343;51.102;5.884;2023-04-03T06:34:23;3.35;78.69
71523;HTU21D;59343;51.102;5.884;2023-04-03T06:36:49;3.39;78.59
71523;HTU21D;59343;51.102;5.884;2023-04-03T06:39:21;3.43;78.47
71523;HTU21D;59343;51.102;5.884;2023-04-03T06:41:48;3.52;78.37
71523;HTU21D;59343;51.102;5.884;2023-04-03T06:44:15;3.53;78.28
71523;HTU21D;59343;51.102;5.884;2023-04-03T06:46:43;3.56;78.06
71523;HTU21D;59343;51.102;5.884;2023-04-03T06:49:09;3.60;77.92
71523;HTU21D;59343;51.102;5.884;2023-04-03T06:55:21;3.70;77.89
71523;HTU21D;59343;51.102;5.884;2023-04-03T07:02:13;3.84;77.35
71523;HTU21D;59343;51.102;5.884;2023-04-03T09:12:45;16.16;39.20
71523;HTU21D;59343;51.102;5.884;2023-04-03T09:15:37;16.30;37.92
71523;HTU21D;59343;51.102;5.884;2023-04-03T09:18:34;16.39;36.29
71523;HTU21D;59343;51.102;5.884;2023-04-03T09:23:01;15.59;36.53
71523;HTU21D;59343;51.102;5.884;2023-04-03T12:08:46;14.20;36.97
71523;HTU21D;59343;51.102;5.884;2023-04-03T12:16:23;14.17;36.63
71523;HTU21D;59343;51.102;5.884;2023-04-03T12:27:01;14.07;37.21
71523;HTU21D;59343;51.102;5.884;2023-04-03T12:29:34;14.20;38.24
71523;HTU21D;59343;51.102;5.884;2023-04-03T12:43:20;14.39;37.50
71523;HTU21D;59343;51.102;5.884;2023-04-03T12:48:50;14.40;37.81
71523;HTU21D;59343;51.102;5.884;2023-04-03T12:51:22;14.54;37.33
71523;HTU21D;59343;51.102;5.884;2023-04-03T12:54:00;14.63;37.70
71523;HTU21D;59343;51.102;5.884;2023-04-03T13:08:30;14.42;36.87
71523;HTU21D;59343;51.102;5.884;2023-04-03T13:11:05;14.36;37.88
71523;HTU21D;59343;51.102;5.884;2023-04-03T13:32:55;13.92;38.34
71523;HTU21D;59343;51.102;5.884;2023-04-03T13:49:27;13.80;38.64
71523;HTU21D;59343;51.102;5.884;2023-04-03T13:51:55;13.85;38.42
71523;HTU21D;59343;51.102;5.884;2023-04-03T13:54:31;13.91;39.20
71523;HTU21D;59343;51.102;5.884;2023-04-03T13:56:59;13.84;37.66
71523;HTU21D;59343;51.102;5.884;2023-04-03T13:59:35;13.83;38.40
71523;HTU21D;59343;51.102;5.884;2023-04-03T14:04:32;13.93;36.80
71523;HTU21D;59343;51.102;5.884;2023-04-03T14:06:59;13.91;36.89
71523;HTU21D;59343;51.102;5.884;2023-04-03T14:09:53;13.85;36.74
71523;HTU21D;59343;51.102;5.884;2023-04-03T14:12:40;13.86;36.60
71523;HTU21D;59343;51.102;5.884;2023-04-03T14:15:23;13.78;36.82
71523;HTU21D;59343;51.102;5.884;2023-04-03T14:17:51;13.82;37.00
71523;HTU21D;59343;51.102;5.884;2023-04-03T14:20:21;13.78;36.65
71523;HTU21D;59343;51.102;5.884;2023-04-03T14:22:48;13.66;37.10
71523;HTU21D;59343;51.102;5.884;2023-04-03T14:52:35;13.48;38.11
71523;HTU21D;59343;51.102;5.884;2023-04-03T14:55:04;13.51;38.43
71523;HTU21D;59343;51.102;5.884;2023-04-03T14:57:31;13.56;37.98
71523;HTU21D;59343;51.102;5.884;2023-04-03T14:59:58;13.67;38.00
71523;HTU21D;59343;51.102;5.884;2023-04-03T15:02:36;13.61;37.17
71523;HTU21D;59343;51.102;5.884;2023-04-03T15:05:06;13.45;37.51
71523;HTU21D;59343;51.102;5.884;2023-04-03T15:07:40;13.35;37.85
71523;HTU21D;59343;51.102;5.884;2023-04-03T15:10:19;13.20;36.78
71523;HTU21D;59343;51.102;5.884;2023-04-03T15:12:46;13.07;37.24
71523;HTU21D;59343;51.102;5.884;2023-04-03T15:15:15;12.87;36.95
71523;HTU21D;59343;51.102;5.884;2023-04-03T15:17:43;12.69;36.47
71523;HTU21D;59343;51.102;5.884;2023-04-03T15:28:47;12.60;37.94
71523;HTU21D;59343;51.102;5.884;2023-04-03T15:31:23;12.59;38.34
71523;HTU21D;59343;51.102;5.884;2023-04-03T15:34:15;12.60;38.36
71523;HTU21D;59343;51.102;5.884;2023-04-03T15:36:41;12.58;38.07
71523;HTU21D;59343;51.102;5.884;2023-04-03T15:39:07;12.53;37.82
71523;HTU21D;59343;51.102;5.884;2023-04-03T15:41:33;12.48;37.97
71523;HTU21D;59343;51.102;5.884;2023-04-03T15:43:59;12.36;37.50
71523;HTU21D;59343;51.102;5.884;2023-04-03T15:46:25;12.34;38.06
71523;HTU21D;59343;51.102;5.884;2023-04-03T15:48:51;12.20;38.45
71523;HTU21D;59343;51.102;5.884;2023-04-03T15:51:17;12.22;38.85
71523;HTU21D;59343;51.102;5.884;2023-04-03T15:53:43;12.21;38.77
71523;HTU21D;59343;51.102;5.884;2023-04-03T15:56:12;12.16;38.78
71523;HTU21D;59343;51.102;5.884;2023-04-03T15:58:38;12.15;39.20
71523;HTU21D;59343;51.102;5.884;2023-04-03T16:01:05;12.20;39.67
71523;HTU21D;59343;51.102;5.884;2023-04-03T16:03:31;12.21;39.75
71523;HTU21D;59343;51.102;5.884;2023-04-03T16:11:12;12.07;38.59
71523;HTU21D;59343;51.102;5.884;2023-04-03T17:10:51;10.70;41.77
71523;HTU21D;59343;51.102;5.884;2023-04-03T18:38:57;9.01;46.15
71523;HTU21D;59343;51.102;5.884;2023-04-03T18:45:52;8.89;46.33
71523;HTU21D;59343;51.102;5.884;2023-04-03T18:48:22;8.86;46.47
71523;HTU21D;59343;51.102;5.884;2023-04-03T18:52:08;8.78;46.69
71523;HTU21D;59343;51.102;5.884;2023-04-03T18:58:57;8.67;46.99
71523;HTU21D;59343;51.102;5.884;2023-04-03T19:01:40;8.60;47.14
71523;HTU21D;59343;51.102;5.884;2023-04-03T19:04:14;8.57;47.37
71523;HTU21D;59343;51.102;5.884;2023-04-03T19:06:47;8.52;47.50
71523;HTU21D;59343;51.102;5.884;2023-04-03T19:09:18;8.50;47.73
71523;HTU21D;59343;51.102;5.884;2023-04-03T19:12:05;8.39;47.94
71523;HTU21D;59343;51.102;5.884;2023-04-03T19:41:36;7.93;49.35
71523;HTU21D;59343;51.102;5.884;2023-04-03T19:44:12;7.91;49.59
71523;HTU21D;59343;51.102;5.884;2023-04-03T19:46:39;7.90;49.50
71523;HTU21D;59343;51.102;5.884;2023-04-03T19:49:27;7.85;49.53
71523;HTU21D;59343;51.102;5.884;2023-04-03T19:52:38;7.83;49.53
71523;HTU21D;59343;51.102;5.884;2023-04-03T19:55:42;7.83;49.49
71523;HTU21D;59343;51.102;5.884;2023-04-03T19:59:40;7.79;49.75
71523;HTU21D;59343;51.102;5.884;2023-04-03T20:02:28;7.74;49.69
71523;HTU21D;59343;51.102;5.884;2023-04-03T20:09:28;7.65;49.85
71523;HTU21D;59343;51.102;5.884;2023-04-03T20:11:54;7.65;49.74
71523;HTU21D;59343;51.102;5.884;2023-04-03T20:14:22;7.64;49.83
71523;HTU21D;59343;51.102;5.884;2023-04-03T20:16:48;7.63;49.82
71523;HTU21D;59343;51.102;5.884;2023-04-03T20:19:14;7.61;50.05
71523;HTU21D;59343;51.102;5.884;2023-04-03T20:21:41;7.57;50.03
71523;HTU21D;59343;51.102;5.884;2023-04-03T20:24:07;7.56;50.17
71523;HTU21D;59343;51.102;5.884;2023-04-03T20:26:34;7.57;50.10
71523;HTU21D;59343;51.102;5.884;2023-04-03T20:29:03;7.55;50.11
71523;HTU21D;59343;51.102;5.884;2023-04-03T20:31:30;7.52;50.18
71523;HTU21D;59343;51.102;5.884;2023-04-03T20:33:57;7.50;50.26
71523;HTU21D;59343;51.102;5.884;2023-04-03T20:36:23;7.43;50.34
71523;HTU21D;59343;51.102;5.884;2023-04-03T20:38:51;7.41;50.44
71523;HTU21D;59343;51.102;5.884;2023-04-03T20:41:17;7.37;50.56
71523;HTU21D;59343;51.102;5.884;2023-04-03T20:43:44;7.32;50.56
71523;HTU21D;59343;51.102;5.884;2023-04-03T20:46:12;7.27;50.58
71523;HTU21D;59343;51.102;5.884;2023-04-03T20:48:39;7.24;50.79
71523;HTU21D;59343;51.102;5.884;2023-04-03T20:51:14;7.20;50.89
71523;HTU21D;59343;51.102;5.884;2023-04-03T20:53:41;7.18;50.97
71523;HTU21D;59343;51.102;5.884;2023-04-03T20:56:07;7.17;51.01
71523;HTU21D;59343;51.102;5.884;2023-04-03T20:58:35;7.14;51.09
71523;HTU21D;59343;51.102;5.884;2023-04-03T21:01:13;7.13;51.18
71523;HTU21D;59343;51.102;5.884;2023-04-03T21:03:39;7.12;51.18
71523;HTU21D;59343;51.102;5.884;2023-04-03T21:21:25;6.93;51.73
71523;HTU21D;59343;51.102;5.884;2023-04-03T21:23:54;6.87;51.79
71523;HTU21D;59343;51.102;5.884;2023-04-03T21:26:22;6.85;51.86
71523;HTU21D;59343;51.102;5.884;2023-04-03T21:28:50;6.80;52.01
71523;HTU21D;59343;51.102;5.884;2023-04-03T21:31:18;6.78;52.12
71523;HTU21D;59343;51.102;5.884;2023-04-03T21:33:43;6.74;52.21
71523;HTU21D;59343;51.102;5.884;2023-04-03T21:36:09;6.72;52.29
71523;HTU21D;59343;51.102;5.884;2023-04-03T21:38:35;6.71;52.35
71523;HTU21D;59343;51.102;5.884;2023-04-03T21:41:02;6.73;52.47
71523;HTU21D;59343;51.102;5.884;2023-04-03T21:43:28;6.72;52.31
71523;HTU21D;59343;51.102;5.884;2023-04-03T21:45:55;6.69;52.34
71523;HTU21D;59343;51.102;5.884;2023-04-03T21:48:22;6.65;52.47
71523;HTU21D;59343;51.102;5.884;2023-04-03T21:50:49;6.63;52.54
71523;HTU21D;59343;51.102;5.884;2023-04-03T21:53:21;6.60;52.64
71523;HTU21D;59343;51.102;5.884;2023-04-03T21:55:54;6.56;52.84
71523;HTU21D;59343;51.102;5.884;2023-04-03T21:58:32;6.50;53.14
71523;HTU21D;59343;51.102;5.884;2023-04-03T22:01:09;6.44;53.17
71523;HTU21D;59343;51.102;5.884;2023-04-03T22:03:36;6.41;53.34
71523;HTU21D;59343;51.102;5.884;2023-04-03T22:06:03;6.39;53.49
71523;HTU21D;59343;51.102;5.884;2023-04-03T22:08:29;6.37;53.69
71523;HTU21D;59343;51.102;5.884;2023-04-03T22:11:00;6.35;53.69
71523;HTU21D;59343;51.102;5.884;2023-04-03T22:13:27;6.34;53.77
71523;HTU21D;59343;51.102;5.884;2023-04-03T22:15:52;6.29;53.92
71523;HTU21D;59343;51.102;5.884;2023-04-03T22:18:19;6.31;54.10
71523;HTU21D;59343;51.102;5.884;2023-04-03T22:20:45;6.29;53.98
71523;HTU21D;59343;51.102;5.884;2023-04-03T22:23:10;6.26;53.96
71523;HTU21D;59343;51.102;5.884;2023-04-03T22:25:36;6.27;54.04
71523;HTU21D;59343;51.102;5.884;2023-04-03T22:28:02;6.27;53.97
71523;HTU21D;59343;51.102;5.884;2023-04-03T22:30:28;6.25;53.94
71523;HTU21D;59343;51.102;5.884;2023-04-03T22:32:54;6.22;53.91
71523;HTU21D;59343;51.102;5.884;2023-04-03T22:35:20;6.21;53.86
71523;HTU21D;59343;51.102;5.884;2023-04-03T22:37:49;6.22;54.04
71523;HTU21D;59343;51.102;5.884;2023-04-03T22:40:16;6.22;54.28
71523;HTU21D;59343;51.102;5.884;2023-04-03T22:42:46;6.23;54.10
71523;HTU21D;59343;51.102;5.884;2023-04-03T22:45:13;6.22;53.88
71523;HTU21D;59343;51.102;5.884;2023-04-03T22:47:40;6.19;53.94
71523;HTU21D;59343;51.102;5.884;2023-04-03T22:50:06;6.14;53.93
71523;HTU21D;59343;51.102;5.884;2023-04-03T22:52:32;6.10;54.15
71523;HTU21D;59343;51.102;5.884;2023-04-03T22:54:58;6.07;54.33
71523;HTU21D;59343;51.102;5.884;2023-04-03T22:57:23;6.02;54.58
71523;HTU21D;59343;51.102;5.884;2023-04-03T22:59:49;5.98;54.87
71523;HTU21D;59343;51.102;5.884;2023-04-03T23:02:15;5.96;54.99
71523;HTU21D;59343;51.102;5.884;2023-04-03T23:04:41;5.93;55.07
71523;HTU21D;59343;51.102;5.884;2023-04-03T23:07:07;5.91;55.13
71523;HTU21D;59343;51.102;5.884;2023-04-03T23:09:33;5.91;55.29
71523;HTU21D;59343;51.102;5.884;2023-04-03T23:11:59;5.83;55.51
71523;HTU21D;59343;51.102;5.884;2023-04-03T23:14:24;5.81;55.74
71523;HTU21D;59343;51.102;5.884;2023-04-03T23:16:50;5.79;55.84
71523;HTU21D;59343;51.102;5.884;2023-04-03T23:19:16;5.76;55.97
71523;HTU21D;59343;51.102;5.884;2023-04-03T23:21:43;5.72;56.29
71523;HTU21D;59343;51.102;5.884;2023-04-03T23:24:10;5.71;56.34
71523;HTU21D;59343;51.102;5.884;2023-04-03T23:26:37;5.70;56.83
71523;HTU21D;59343;51.102;5.884;2023-04-03T23:29:03;5.67;56.93
71523;HTU21D;59343;51.102;5.884;2023-04-03T23:31:30;5.64;57.15
71523;HTU21D;59343;51.102;5.884;2023-04-03T23:33:56;5.60;57.56
71523;HTU21D;59343;51.102;5.884;2023-04-03T23:36:22;5.55;57.72
71523;HTU21D;59343;51.102;5.884;2023-04-03T23:38:48;5.51;57.96
71523;HTU21D;59343;51.102;5.884;2023-04-03T23:41:14;5.48;57.74
71523;HTU21D;59343;51.102;5.884;2023-04-03T23:43:39;5.45;57.77
71523;HTU21D;59343;51.102;5.884;2023-04-03T23:46:06;5.42;57.86
71523;HTU21D;59343;51.102;5.884;2023-04-03T23:48:32;5.36;58.08
71523;HTU21D;59343;51.102;5.884;2023-04-03T23:50:58;5.33;58.13
71523;HTU21D;59343;51.102;5.884;2023-04-03T23:53:24;5.33;58.42
71523;HTU21D;59343;51.102;5.884;2023-04-03T23:55:50;5.33;58.12
71523;HTU21D;59343;51.102;5.884;2023-04-03T23:58:16;5.30;58.31
